sensor_id;sensor_type;location;lat;lon;timestamp;P1;durP1;ratioP1;P2;durP2;ratioP2
25497;SDS011;13406;53.380;7.226;2023-04-09T00:02:13;65.83;;;45.40;;
25497;SDS011;13406;53.380;7.226;2023-04-09T00:04:40;56.87;;;40.77;;
25497;SDS011;13406;53.380;7.226;2023-04-09T00:07:05;53.60;;;41.97;;
25497;SDS011;13406;53.380;7.226;2023-04-09T00:09:30;55.53;;;40.23;;
25497;SDS011;13406;53.380;7.226;2023-04-09T00:11:56;50.03;;;37.83;;
25497;SDS011;13406;53.380;7.226;2023-04-09T00:14:22;52.80;;;39.00;;
25497;SDS011;13406;53.380;7.226;2023-04-09T00:16:48;48.67;;;38.60;;
25497;SDS011;13406;53.380;7.226;2023-04-09T00:19:13;56.63;;;41.30;;
25497;SDS011;13406;53.380;7.226;2023-04-09T00:21:39;55.97;;;41.63;;
25497;SDS011;13406;53.380;7.226;2023-04-09T00:24:04;53.40;;;39.53;;
25497;SDS011;13406;53.380;7.226;2023-04-09T00:26:30;51.40;;;38.43;;
25497;SDS011;13406;53.380;7.226;2023-04-09T00:28:55;50.43;;;37.33;;
25497;SDS011;13406;53.380;7.226;2023-04-09T00:31:21;52.70;;;37.97;;
25497;SDS011;13406;53.380;7.226;2023-04-09T00:33:46;69.57;;;44.13;;
25497;SDS011;13406;53.380;7.226;2023-04-09T00:36:12;69.40;;;47.03;;
25497;SDS011;13406;53.380;7.226;2023-04-09T00:38:37;62.60;;;44.33;;
25497;SDS011;13406;53.380;7.226;2023-04-09T00:41:03;58.00;;;40.10;;
25497;SDS011;13406;53.380;7.226;2023-04-09T00:43:28;55.17;;;39.70;;
25497;SDS011;13406;53.380;7.226;2023-04-09T00:45:54;60.00;;;39.00;;
25497;SDS011;13406;53.380;7.226;2023-04-09T00:48:20;51.90;;;36.70;;
25497;SDS011;13406;53.380;7.226;2023-04-09T00:50:46;49.50;;;36.97;;
25497;SDS011;13406;53.380;7.226;2023-04-09T00:53:11;47.50;;;35.97;;
25497;SDS011;13406;53.380;7.226;2023-04-09T00:55:38;47.17;;;36.13;;
25497;SDS011;13406;53.380;7.226;2023-04-09T00:58:07;50.67;;;34.97;;
25497;SDS011;13406;53.380;7.226;2023-04-09T01:00:32;48.70;;;36.60;;
25497;SDS011;13406;53.380;7.226;2023-04-09T01:02:58;58.80;;;40.90;;
25497;SDS011;13406;53.380;7.226;2023-04-09T01:05:48;65.17;;;43.80;;
25497;SDS011;13406;53.380;7.226;2023-04-09T01:08:23;69.10;;;46.27;;
25497;SDS011;13406;53.380;7.226;2023-04-09T01:13:38;67.83;;;46.30;;
25497;SDS011;13406;53.380;7.226;2023-04-09T01:16:11;63.60;;;44.17;;
25497;SDS011;13406;53.380;7.226;2023-04-09T01:18:43;73.37;;;49.83;;
25497;SDS011;13406;53.380;7.226;2023-04-09T01:21:36;69.23;;;43.23;;
25497;SDS011;13406;53.380;7.226;2023-04-09T01:29:30;55.00;;;37.63;;
25497;SDS011;13406;53.380;7.226;2023-04-09T01:31:57;56.50;;;35.87;;
25497;SDS011;13406;53.380;7.226;2023-04-09T01:34:25;51.03;;;34.33;;
25497;SDS011;13406;53.380;7.226;2023-04-09T01:36:54;54.57;;;38.00;;
25497;SDS011;13406;53.380;7.226;2023-04-09T01:39:22;57.17;;;37.97;;
25497;SDS011;13406;53.380;7.226;2023-04-09T01:41:48;49.03;;;38.40;;
25497;SDS011;13406;53.380;7.226;2023-04-09T01:44:15;48.83;;;35.53;;
25497;SDS011;13406;53.380;7.226;2023-04-09T01:46:41;41.43;;;32.20;;
25497;SDS011;13406;53.380;7.226;2023-04-09T01:49:08;43.40;;;32.93;;
25497;SDS011;13406;53.380;7.226;2023-04-09T01:51:35;42.30;;;33.27;;
25497;SDS011;13406;53.380;7.226;2023-04-09T01:54:01;43.03;;;33.50;;
25497;SDS011;13406;53.380;7.226;2023-04-09T01:56:27;41.80;;;32.30;;
25497;SDS011;13406;53.380;7.226;2023-04-09T01:59:04;43.23;;;32.73;;
25497;SDS011;13406;53.380;7.226;2023-04-09T02:01:34;52.13;;;37.57;;
25497;SDS011;13406;53.380;7.226;2023-04-09T02:04:10;55.40;;;39.03;;
25497;SDS011;13406;53.380;7.226;2023-04-09T02:09:17;56.77;;;40.30;;
25497;SDS011;13406;53.380;7.226;2023-04-09T02:11:44;50.87;;;37.90;;
25497;SDS011;13406;53.380;7.226;2023-04-09T02:14:12;49.70;;;37.63;;
25497;SDS011;13406;53.380;7.226;2023-04-09T02:16:39;54.30;;;37.97;;
25497;SDS011;13406;53.380;7.226;2023-04-09T02:19:04;48.83;;;37.13;;
25497;SDS011;13406;53.380;7.226;2023-04-09T02:21:30;51.77;;;38.93;;
25497;SDS011;13406;53.380;7.226;2023-04-09T02:23:56;44.77;;;35.53;;
25497;SDS011;13406;53.380;7.226;2023-04-09T02:26:21;51.90;;;37.77;;
25497;SDS011;13406;53.380;7.226;2023-04-09T02:28:48;52.00;;;38.97;;
25497;SDS011;13406;53.380;7.226;2023-04-09T02:31:13;54.57;;;41.33;;
25497;SDS011;13406;53.380;7.226;2023-04-09T02:33:39;55.30;;;39.13;;
25497;SDS011;13406;53.380;7.226;2023-04-09T02:36:05;52.17;;;40.00;;
25497;SDS011;13406;53.380;7.226;2023-04-09T02:38:31;59.17;;;41.13;;
25497;SDS011;13406;53.380;7.226;2023-04-09T02:40:56;61.93;;;43.00;;
25497;SDS011;13406;53.380;7.226;2023-04-09T02:43:22;72.20;;;50.83;;
25497;SDS011;13406;53.380;7.226;2023-04-09T02:45:48;68.90;;;49.67;;
25497;SDS011;13406;53.380;7.226;2023-04-09T02:48:13;78.23;;;55.00;;
25497;SDS011;13406;53.380;7.226;2023-04-09T02:50:39;75.27;;;55.60;;
25497;SDS011;13406;53.380;7.226;2023-04-09T02:53:04;81.77;;;60.57;;
25497;SDS011;13406;53.380;7.226;2023-04-09T02:55:30;90.40;;;64.67;;
25497;SDS011;13406;53.380;7.226;2023-04-09T02:57:55;85.33;;;64.17;;
25497;SDS011;13406;53.380;7.226;2023-04-09T03:00:21;98.37;;;63.70;;
25497;SDS011;13406;53.380;7.226;2023-04-09T03:02:46;94.53;;;65.93;;
25497;SDS011;13406;53.380;7.226;2023-04-09T03:05:11;90.80;;;65.73;;
25497;SDS011;13406;53.380;7.226;2023-04-09T03:07:37;92.37;;;64.30;;
25497;SDS011;13406;53.380;7.226;2023-04-09T03:10:02;87.07;;;66.17;;
25497;SDS011;13406;53.380;7.226;2023-04-09T03:12:28;94.37;;;68.00;;
25497;SDS011;13406;53.380;7.226;2023-04-09T03:14:54;86.77;;;62.70;;
25497;SDS011;13406;53.380;7.226;2023-04-09T03:17:19;91.03;;;67.10;;
25497;SDS011;13406;53.380;7.226;2023-04-09T03:19:45;89.70;;;62.40;;
25497;SDS011;13406;53.380;7.226;2023-04-09T03:22:10;87.00;;;65.40;;
25497;SDS011;13406;53.380;7.226;2023-04-09T03:24:35;86.43;;;66.10;;
25497;SDS011;13406;53.380;7.226;2023-04-09T03:27:01;93.03;;;68.20;;
25497;SDS011;13406;53.380;7.226;2023-04-09T03:29:26;84.67;;;64.20;;
25497;SDS011;13406;53.380;7.226;2023-04-09T03:31:52;84.20;;;63.30;;
25497;SDS011;13406;53.380;7.226;2023-04-09T03:34:17;84.17;;;63.90;;
25497;SDS011;13406;53.380;7.226;2023-04-09T03:36:42;92.23;;;66.23;;
25497;SDS011;13406;53.380;7.226;2023-04-09T03:39:08;85.30;;;64.43;;
25497;SDS011;13406;53.380;7.226;2023-04-09T03:41:33;87.53;;;65.10;;
25497;SDS011;13406;53.380;7.226;2023-04-09T03:43:59;88.43;;;65.60;;
25497;SDS011;13406;53.380;7.226;2023-04-09T03:46:24;90.03;;;64.60;;
25497;SDS011;13406;53.380;7.226;2023-04-09T03:48:50;94.73;;;65.93;;
25497;SDS011;13406;53.380;7.226;2023-04-09T03:51:15;83.47;;;62.73;;
25497;SDS011;13406;53.380;7.226;2023-04-09T03:53:42;89.40;;;64.67;;
25497;SDS011;13406;53.380;7.226;2023-04-09T03:56:08;86.80;;;62.93;;
25497;SDS011;13406;53.380;7.226;2023-04-09T03:58:34;89.50;;;64.67;;
25497;SDS011;13406;53.380;7.226;2023-04-09T04:00:59;83.43;;;61.67;;
25497;SDS011;13406;53.380;7.226;2023-04-09T04:03:25;91.90;;;64.20;;
25497;SDS011;13406;53.380;7.226;2023-04-09T04:05:51;97.43;;;67.63;;
25497;SDS011;13406;53.380;7.226;2023-04-09T04:08:16;88.10;;;63.10;;
25497;SDS011;13406;53.380;7.226;2023-04-09T04:10:42;81.77;;;59.90;;
25497;SDS011;13406;53.380;7.226;2023-04-09T04:13:07;85.37;;;62.80;;
25497;SDS011;13406;53.380;7.226;2023-04-09T04:15:38;86.43;;;61.33;;
25497;SDS011;13406;53.380;7.226;2023-04-09T04:18:05;86.90;;;62.07;;
25497;SDS011;13406;53.380;7.226;2023-04-09T04:20:34;84.37;;;59.83;;
25497;SDS011;13406;53.380;7.226;2023-04-09T04:23:00;80.87;;;58.50;;
25497;SDS011;13406;53.380;7.226;2023-04-09T04:25:25;81.43;;;60.70;;
25497;SDS011;13406;53.380;7.226;2023-04-09T04:27:51;82.37;;;60.10;;
25497;SDS011;13406;53.380;7.226;2023-04-09T04:30:16;82.07;;;58.23;;
25497;SDS011;13406;53.380;7.226;2023-04-09T04:32:42;89.77;;;62.90;;
25497;SDS011;13406;53.380;7.226;2023-04-09T04:35:08;82.33;;;59.13;;
25497;SDS011;13406;53.380;7.226;2023-04-09T04:37:33;86.67;;;60.27;;
25497;SDS011;13406;53.380;7.226;2023-04-09T04:40:01;84.80;;;61.33;;
25497;SDS011;13406;53.380;7.226;2023-04-09T04:42:28;80.67;;;57.93;;
25497;SDS011;13406;53.380;7.226;2023-04-09T04:44:53;84.80;;;60.17;;
25497;SDS011;13406;53.380;7.226;2023-04-09T04:47:19;82.70;;;57.73;;
25497;SDS011;13406;53.380;7.226;2023-04-09T04:49:44;81.60;;;60.73;;
25497;SDS011;13406;53.380;7.226;2023-04-09T04:52:10;80.37;;;60.30;;
25497;SDS011;13406;53.380;7.226;2023-04-09T04:54:35;83.60;;;59.27;;
25497;SDS011;13406;53.380;7.226;2023-04-09T04:57:01;80.20;;;59.37;;
25497;SDS011;13406;53.380;7.226;2023-04-09T04:59:26;87.10;;;59.10;;
25497;SDS011;13406;53.380;7.226;2023-04-09T05:01:52;82.50;;;60.30;;
25497;SDS011;13406;53.380;7.226;2023-04-09T05:04:17;79.37;;;56.30;;
25497;SDS011;13406;53.380;7.226;2023-04-09T05:06:43;76.47;;;55.67;;
25497;SDS011;13406;53.380;7.226;2023-04-09T05:09:08;81.40;;;55.83;;
25497;SDS011;13406;53.380;7.226;2023-04-09T05:11:34;83.97;;;59.30;;
25497;SDS011;13406;53.380;7.226;2023-04-09T05:13:59;79.30;;;55.00;;
25497;SDS011;13406;53.380;7.226;2023-04-09T05:16:24;78.53;;;57.17;;
25497;SDS011;13406;53.380;7.226;2023-04-09T05:18:51;76.27;;;55.67;;
25497;SDS011;13406;53.380;7.226;2023-04-09T05:21:16;81.63;;;56.63;;
25497;SDS011;13406;53.380;7.226;2023-04-09T05:23:41;81.50;;;58.27;;
25497;SDS011;13406;53.380;7.226;2023-04-09T05:26:07;77.30;;;56.20;;
25497;SDS011;13406;53.380;7.226;2023-04-09T05:28:32;82.63;;;57.50;;
25497;SDS011;13406;53.380;7.226;2023-04-09T05:30:58;75.60;;;53.90;;
25497;SDS011;13406;53.380;7.226;2023-04-09T05:33:23;79.10;;;56.90;;
25497;SDS011;13406;53.380;7.226;2023-04-09T05:35:49;76.50;;;54.73;;
25497;SDS011;13406;53.380;7.226;2023-04-09T05:38:14;76.50;;;56.37;;
25497;SDS011;13406;53.380;7.226;2023-04-09T05:40:40;75.23;;;53.40;;
25497;SDS011;13406;53.380;7.226;2023-04-09T05:43:06;77.17;;;54.03;;
25497;SDS011;13406;53.380;7.226;2023-04-09T05:45:32;78.00;;;55.30;;
25497;SDS011;13406;53.380;7.226;2023-04-09T05:47:57;77.00;;;53.83;;
25497;SDS011;13406;53.380;7.226;2023-04-09T05:50:23;80.90;;;54.90;;
25497;SDS011;13406;53.380;7.226;2023-04-09T05:52:48;73.40;;;55.30;;
25497;SDS011;13406;53.380;7.226;2023-04-09T05:55:13;71.90;;;51.70;;
25497;SDS011;13406;53.380;7.226;2023-04-09T05:57:39;72.70;;;54.13;;
25497;SDS011;13406;53.380;7.226;2023-04-09T06:00:05;70.50;;;52.23;;
25497;SDS011;13406;53.380;7.226;2023-04-09T06:02:32;72.17;;;51.70;;
25497;SDS011;13406;53.380;7.226;2023-04-09T06:04:57;73.50;;;51.67;;
25497;SDS011;13406;53.380;7.226;2023-04-09T06:07:23;65.67;;;48.10;;
25497;SDS011;13406;53.380;7.226;2023-04-09T06:09:48;66.73;;;50.00;;
25497;SDS011;13406;53.380;7.226;2023-04-09T06:12:14;73.73;;;51.57;;
25497;SDS011;13406;53.380;7.226;2023-04-09T06:14:40;70.93;;;48.33;;
25497;SDS011;13406;53.380;7.226;2023-04-09T06:17:05;68.73;;;47.97;;
25497;SDS011;13406;53.380;7.226;2023-04-09T06:19:31;69.00;;;49.00;;
25497;SDS011;13406;53.380;7.226;2023-04-09T06:21:56;68.43;;;45.77;;
25497;SDS011;13406;53.380;7.226;2023-04-09T06:24:22;68.13;;;48.80;;
25497;SDS011;13406;53.380;7.226;2023-04-09T06:26:47;68.90;;;46.10;;
25497;SDS011;13406;53.380;7.226;2023-04-09T06:29:13;64.73;;;45.23;;
25497;SDS011;13406;53.380;7.226;2023-04-09T06:31:38;72.37;;;50.90;;
25497;SDS011;13406;53.380;7.226;2023-04-09T06:34:04;66.47;;;49.00;;
25497;SDS011;13406;53.380;7.226;2023-04-09T06:36:29;71.70;;;50.40;;
25497;SDS011;13406;53.380;7.226;2023-04-09T06:38:55;73.20;;;50.27;;
25497;SDS011;13406;53.380;7.226;2023-04-09T06:41:21;71.10;;;50.30;;
25497;SDS011;13406;53.380;7.226;2023-04-09T06:43:47;70.30;;;49.50;;
25497;SDS011;13406;53.380;7.226;2023-04-09T06:46:13;71.13;;;48.90;;
25497;SDS011;13406;53.380;7.226;2023-04-09T06:48:41;67.63;;;49.63;;
25497;SDS011;13406;53.380;7.226;2023-04-09T06:51:08;65.47;;;46.00;;
25497;SDS011;13406;53.380;7.226;2023-04-09T06:53:35;64.03;;;43.87;;
25497;SDS011;13406;53.380;7.226;2023-04-09T06:56:01;53.07;;;38.90;;
25497;SDS011;13406;53.380;7.226;2023-04-09T06:58:26;52.57;;;41.60;;
25497;SDS011;13406;53.380;7.226;2023-04-09T07:00:55;56.80;;;39.93;;
25497;SDS011;13406;53.380;7.226;2023-04-09T07:03:21;59.33;;;39.47;;
25497;SDS011;13406;53.380;7.226;2023-04-09T07:05:46;53.53;;;39.13;;
25497;SDS011;13406;53.380;7.226;2023-04-09T07:08:12;57.23;;;40.27;;
25497;SDS011;13406;53.380;7.226;2023-04-09T07:10:38;60.33;;;40.40;;
25497;SDS011;13406;53.380;7.226;2023-04-09T07:13:04;52.13;;;37.90;;
25497;SDS011;13406;53.380;7.226;2023-04-09T07:15:29;54.20;;;37.73;;
25497;SDS011;13406;53.380;7.226;2023-04-09T07:17:54;52.43;;;36.20;;
25497;SDS011;13406;53.380;7.226;2023-04-09T07:20:21;43.20;;;31.17;;
25497;SDS011;13406;53.380;7.226;2023-04-09T07:22:47;37.53;;;27.10;;
25497;SDS011;13406;53.380;7.226;2023-04-09T07:25:13;39.03;;;28.80;;
25497;SDS011;13406;53.380;7.226;2023-04-09T07:27:39;46.80;;;28.87;;
25497;SDS011;13406;53.380;7.226;2023-04-09T07:30:04;36.67;;;27.63;;
25497;SDS011;13406;53.380;7.226;2023-04-09T07:32:30;42.10;;;31.20;;
25497;SDS011;13406;53.380;7.226;2023-04-09T07:34:56;39.43;;;29.93;;
25497;SDS011;13406;53.380;7.226;2023-04-09T07:37:23;38.17;;;28.30;;
25497;SDS011;13406;53.380;7.226;2023-04-09T07:39:49;39.30;;;29.13;;
25497;SDS011;13406;53.380;7.226;2023-04-09T07:42:15;43.17;;;30.53;;
25497;SDS011;13406;53.380;7.226;2023-04-09T07:44:40;37.10;;;26.63;;
25497;SDS011;13406;53.380;7.226;2023-04-09T07:47:06;38.80;;;29.00;;
25497;SDS011;13406;53.380;7.226;2023-04-09T07:49:32;38.93;;;27.80;;
25497;SDS011;13406;53.380;7.226;2023-04-09T07:52:00;37.73;;;28.87;;
25497;SDS011;13406;53.380;7.226;2023-04-09T07:54:25;38.23;;;27.93;;
25497;SDS011;13406;53.380;7.226;2023-04-09T07:56:52;36.10;;;27.97;;
25497;SDS011;13406;53.380;7.226;2023-04-09T07:59:17;36.90;;;27.30;;
25497;SDS011;13406;53.380;7.226;2023-04-09T08:01:43;38.73;;;26.83;;
25497;SDS011;13406;53.380;7.226;2023-04-09T08:04:08;32.47;;;23.93;;
25497;SDS011;13406;53.380;7.226;2023-04-09T08:06:34;31.57;;;24.53;;
25497;SDS011;13406;53.380;7.226;2023-04-09T08:09:00;31.43;;;23.80;;
25497;SDS011;13406;53.380;7.226;2023-04-09T08:11:26;35.97;;;25.50;;
25497;SDS011;13406;53.380;7.226;2023-04-09T08:13:52;30.63;;;23.10;;
25497;SDS011;13406;53.380;7.226;2023-04-09T08:16:18;30.13;;;21.37;;
25497;SDS011;13406;53.380;7.226;2023-04-09T08:18:45;29.33;;;23.37;;
25497;SDS011;13406;53.380;7.226;2023-04-09T08:21:11;29.00;;;23.37;;
25497;SDS011;13406;53.380;7.226;2023-04-09T08:23:36;32.93;;;24.20;;
25497;SDS011;13406;53.380;7.226;2023-04-09T08:26:02;30.63;;;23.20;;
25497;SDS011;13406;53.380;7.226;2023-04-09T08:28:27;31.00;;;23.07;;
25497;SDS011;13406;53.380;7.226;2023-04-09T08:30:53;26.80;;;20.00;;
25497;SDS011;13406;53.380;7.226;2023-04-09T08:33:18;31.50;;;23.10;;
25497;SDS011;13406;53.380;7.226;2023-04-09T08:35:44;26.70;;;21.20;;
25497;SDS011;13406;53.380;7.226;2023-04-09T08:38:09;26.70;;;20.80;;
25497;SDS011;13406;53.380;7.226;2023-04-09T08:40:35;30.17;;;22.80;;
25497;SDS011;13406;53.380;7.226;2023-04-09T08:43:03;27.40;;;21.00;;
25497;SDS011;13406;53.380;7.226;2023-04-09T08:45:30;26.43;;;20.03;;
25497;SDS011;13406;53.380;7.226;2023-04-09T08:47:56;27.80;;;20.77;;
25497;SDS011;13406;53.380;7.226;2023-04-09T08:50:27;22.90;;;18.63;;
25497;SDS011;13406;53.380;7.226;2023-04-09T08:52:53;25.50;;;19.47;;
25497;SDS011;13406;53.380;7.226;2023-04-09T08:55:20;25.67;;;20.67;;
25497;SDS011;13406;53.380;7.226;2023-04-09T08:57:46;29.53;;;22.13;;
25497;SDS011;13406;53.380;7.226;2023-04-09T09:00:11;27.33;;;21.90;;
25497;SDS011;13406;53.380;7.226;2023-04-09T09:02:37;28.40;;;21.40;;
25497;SDS011;13406;53.380;7.226;2023-04-09T09:05:03;28.93;;;23.10;;
25497;SDS011;13406;53.380;7.226;2023-04-09T09:07:29;28.40;;;21.30;;
25497;SDS011;13406;53.380;7.226;2023-04-09T09:09:56;23.00;;;18.60;;
25497;SDS011;13406;53.380;7.226;2023-04-09T09:12:33;22.40;;;17.97;;
25497;SDS011;13406;53.380;7.226;2023-04-09T09:15:04;22.93;;;18.20;;
25497;SDS011;13406;53.380;7.226;2023-04-09T09:17:52;28.20;;;18.73;;
25497;SDS011;13406;53.380;7.226;2023-04-09T09:20:19;23.47;;;17.90;;
25497;SDS011;13406;53.380;7.226;2023-04-09T09:22:49;24.63;;;18.30;;
25497;SDS011;13406;53.380;7.226;2023-04-09T09:25:18;20.77;;;16.97;;
25497;SDS011;13406;53.380;7.226;2023-04-09T09:27:48;23.63;;;18.70;;
25497;SDS011;13406;53.380;7.226;2023-04-09T09:32:50;23.83;;;19.30;;
25497;SDS011;13406;53.380;7.226;2023-04-09T09:35:28;22.40;;;17.27;;
25497;SDS011;13406;53.380;7.226;2023-04-09T09:38:03;22.17;;;17.20;;
25497;SDS011;13406;53.380;7.226;2023-04-09T09:40:28;19.20;;;16.20;;
25497;SDS011;13406;53.380;7.226;2023-04-09T09:42:55;22.00;;;16.90;;
25497;SDS011;13406;53.380;7.226;2023-04-09T09:45:21;20.43;;;16.53;;
25497;SDS011;13406;53.380;7.226;2023-04-09T09:47:48;22.17;;;17.03;;
25497;SDS011;13406;53.380;7.226;2023-04-09T09:50:13;20.27;;;16.20;;
25497;SDS011;13406;53.380;7.226;2023-04-09T09:52:39;20.50;;;16.20;;
25497;SDS011;13406;53.380;7.226;2023-04-09T09:55:08;19.93;;;16.33;;
25497;SDS011;13406;53.380;7.226;2023-04-09T09:57:38;22.60;;;17.50;;
25497;SDS011;13406;53.380;7.226;2023-04-09T10:00:06;22.67;;;17.07;;
25497;SDS011;13406;53.380;7.226;2023-04-09T10:02:47;20.77;;;15.80;;
25497;SDS011;13406;53.380;7.226;2023-04-09T10:05:23;20.20;;;15.97;;
25497;SDS011;13406;53.380;7.226;2023-04-09T10:07:52;20.90;;;15.30;;
25497;SDS011;13406;53.380;7.226;2023-04-09T10:10:19;21.47;;;17.40;;
25497;SDS011;13406;53.380;7.226;2023-04-09T10:12:46;21.00;;;15.93;;
25497;SDS011;13406;53.380;7.226;2023-04-09T10:15:12;17.00;;;15.20;;
25497;SDS011;13406;53.380;7.226;2023-04-09T10:17:38;23.87;;;17.23;;
25497;SDS011;13406;53.380;7.226;2023-04-09T10:20:09;22.77;;;17.67;;
25497;SDS011;13406;53.380;7.226;2023-04-09T10:22:45;21.07;;;17.20;;
25497;SDS011;13406;53.380;7.226;2023-04-09T10:25:13;20.67;;;15.90;;
25497;SDS011;13406;53.380;7.226;2023-04-09T10:27:40;17.23;;;14.30;;
25497;SDS011;13406;53.380;7.226;2023-04-09T10:30:08;22.10;;;17.50;;
25497;SDS011;13406;53.380;7.226;2023-04-09T10:32:34;23.90;;;16.57;;
25497;SDS011;13406;53.380;7.226;2023-04-09T10:35:01;22.23;;;17.97;;
25497;SDS011;13406;53.380;7.226;2023-04-09T10:37:27;23.23;;;18.80;;
25497;SDS011;13406;53.380;7.226;2023-04-09T10:39:53;25.83;;;19.80;;
25497;SDS011;13406;53.380;7.226;2023-04-09T10:42:31;21.40;;;17.43;;
25497;SDS011;13406;53.380;7.226;2023-04-09T10:45:09;22.97;;;18.30;;
25497;SDS011;13406;53.380;7.226;2023-04-09T10:47:38;22.50;;;18.10;;
25497;SDS011;13406;53.380;7.226;2023-04-09T10:53:02;22.80;;;19.27;;
25497;SDS011;13406;53.380;7.226;2023-04-09T10:57:58;21.20;;;18.13;;
25497;SDS011;13406;53.380;7.226;2023-04-09T11:00:23;23.60;;;17.50;;
25497;SDS011;13406;53.380;7.226;2023-04-09T11:05:31;23.97;;;18.60;;
25497;SDS011;13406;53.380;7.226;2023-04-09T11:08:10;21.70;;;18.17;;
25497;SDS011;13406;53.380;7.226;2023-04-09T11:10:37;22.33;;;17.73;;
25497;SDS011;13406;53.380;7.226;2023-04-09T11:13:03;22.30;;;18.83;;
25497;SDS011;13406;53.380;7.226;2023-04-09T11:15:30;20.67;;;18.17;;
25497;SDS011;13406;53.380;7.226;2023-04-09T11:17:58;21.87;;;16.83;;
25497;SDS011;13406;53.380;7.226;2023-04-09T11:20:25;23.93;;;18.00;;
25497;SDS011;13406;53.380;7.226;2023-04-09T11:22:52;18.60;;;15.90;;
25497;SDS011;13406;53.380;7.226;2023-04-09T11:25:20;21.87;;;17.40;;
25497;SDS011;13406;53.380;7.226;2023-04-09T11:27:50;19.30;;;15.77;;
25497;SDS011;13406;53.380;7.226;2023-04-09T11:30:16;18.57;;;16.07;;
25497;SDS011;13406;53.380;7.226;2023-04-09T11:32:42;22.87;;;18.20;;
25497;SDS011;13406;53.380;7.226;2023-04-09T11:35:12;19.33;;;16.00;;
25497;SDS011;13406;53.380;7.226;2023-04-09T11:37:40;19.47;;;16.03;;
25497;SDS011;13406;53.380;7.226;2023-04-09T11:40:13;19.17;;;15.33;;
25497;SDS011;13406;53.380;7.226;2023-04-09T11:42:41;20.07;;;17.57;;
25497;SDS011;13406;53.380;7.226;2023-04-09T11:45:07;18.70;;;15.27;;
25497;SDS011;13406;53.380;7.226;2023-04-09T11:47:34;16.70;;;14.17;;
25497;SDS011;13406;53.380;7.226;2023-04-09T11:50:00;17.20;;;14.60;;
25497;SDS011;13406;53.380;7.226;2023-04-09T11:52:26;14.90;;;13.30;;
25497;SDS011;13406;53.380;7.226;2023-04-09T11:54:52;16.50;;;13.73;;
25497;SDS011;13406;53.380;7.226;2023-04-09T11:57:17;20.70;;;15.10;;
25497;SDS011;13406;53.380;7.226;2023-04-09T11:59:46;19.47;;;16.00;;
25497;SDS011;13406;53.380;7.226;2023-04-09T12:02:11;19.13;;;16.13;;
25497;SDS011;13406;53.380;7.226;2023-04-09T12:04:48;19.60;;;15.97;;
25497;SDS011;13406;53.380;7.226;2023-04-09T12:07:14;20.23;;;15.93;;
25497;SDS011;13406;53.380;7.226;2023-04-09T12:09:47;19.80;;;15.33;;
25497;SDS011;13406;53.380;7.226;2023-04-09T12:12:16;20.10;;;15.73;;
25497;SDS011;13406;53.380;7.226;2023-04-09T12:14:44;21.27;;;17.07;;
25497;SDS011;13406;53.380;7.226;2023-04-09T12:17:10;19.40;;;16.27;;
25497;SDS011;13406;53.380;7.226;2023-04-09T12:19:36;20.50;;;15.57;;
25497;SDS011;13406;53.380;7.226;2023-04-09T12:22:01;18.47;;;14.43;;
25497;SDS011;13406;53.380;7.226;2023-04-09T12:24:27;19.60;;;14.50;;
25497;SDS011;13406;53.380;7.226;2023-04-09T12:26:52;16.93;;;14.50;;
25497;SDS011;13406;53.380;7.226;2023-04-09T12:29:18;18.90;;;14.40;;
25497;SDS011;13406;53.380;7.226;2023-04-09T12:31:45;19.07;;;15.30;;
25497;SDS011;13406;53.380;7.226;2023-04-09T12:34:11;19.43;;;15.90;;
25497;SDS011;13406;53.380;7.226;2023-04-09T12:36:40;23.33;;;17.90;;
25497;SDS011;13406;53.380;7.226;2023-04-09T12:39:05;18.30;;;14.97;;
25497;SDS011;13406;53.380;7.226;2023-04-09T12:41:31;19.93;;;16.07;;
25497;SDS011;13406;53.380;7.226;2023-04-09T12:43:57;19.20;;;16.40;;
25497;SDS011;13406;53.380;7.226;2023-04-09T12:46:22;20.67;;;17.10;;
25497;SDS011;13406;53.380;7.226;2023-04-09T12:48:47;20.47;;;16.87;;
25497;SDS011;13406;53.380;7.226;2023-04-09T12:51:13;19.60;;;16.30;;
25497;SDS011;13406;53.380;7.226;2023-04-09T12:53:38;18.57;;;15.43;;
25497;SDS011;13406;53.380;7.226;2023-04-09T12:56:04;19.47;;;16.17;;
25497;SDS011;13406;53.380;7.226;2023-04-09T12:58:30;19.93;;;16.00;;
25497;SDS011;13406;53.380;7.226;2023-04-09T13:00:56;24.20;;;18.50;;
25497;SDS011;13406;53.380;7.226;2023-04-09T13:03:22;22.97;;;19.17;;
25497;SDS011;13406;53.380;7.226;2023-04-09T13:05:48;22.77;;;16.93;;
25497;SDS011;13406;53.380;7.226;2023-04-09T13:08:15;21.63;;;17.33;;
25497;SDS011;13406;53.380;7.226;2023-04-09T13:10:40;19.20;;;15.37;;
25497;SDS011;13406;53.380;7.226;2023-04-09T13:13:06;21.13;;;16.33;;
25497;SDS011;13406;53.380;7.226;2023-04-09T13:15:36;17.33;;;15.23;;
25497;SDS011;13406;53.380;7.226;2023-04-09T13:18:02;18.43;;;14.73;;
25497;SDS011;13406;53.380;7.226;2023-04-09T13:20:27;19.30;;;15.30;;
25497;SDS011;13406;53.380;7.226;2023-04-09T13:22:54;19.20;;;14.43;;
25497;SDS011;13406;53.380;7.226;2023-04-09T13:25:20;16.07;;;14.37;;
25497;SDS011;13406;53.380;7.226;2023-04-09T13:27:45;21.17;;;17.50;;
25497;SDS011;13406;53.380;7.226;2023-04-09T13:30:11;20.40;;;17.30;;
25497;SDS011;13406;53.380;7.226;2023-04-09T13:32:36;22.00;;;17.63;;
25497;SDS011;13406;53.380;7.226;2023-04-09T13:35:02;20.50;;;17.30;;
25497;SDS011;13406;53.380;7.226;2023-04-09T13:37:27;20.03;;;15.90;;
25497;SDS011;13406;53.380;7.226;2023-04-09T13:39:53;18.40;;;15.93;;
25497;SDS011;13406;53.380;7.226;2023-04-09T13:42:19;23.00;;;17.60;;
25497;SDS011;13406;53.380;7.226;2023-04-09T13:44:45;17.60;;;14.70;;
25497;SDS011;13406;53.380;7.226;2023-04-09T13:47:11;21.23;;;16.53;;
25497;SDS011;13406;53.380;7.226;2023-04-09T13:49:41;19.17;;;15.90;;
25497;SDS011;13406;53.380;7.226;2023-04-09T13:52:07;18.77;;;16.50;;
25497;SDS011;13406;53.380;7.226;2023-04-09T13:54:33;20.27;;;16.80;;
25497;SDS011;13406;53.380;7.226;2023-04-09T13:56:59;20.47;;;16.13;;
25497;SDS011;13406;53.380;7.226;2023-04-09T13:59:25;20.93;;;16.27;;
25497;SDS011;13406;53.380;7.226;2023-04-09T14:01:50;18.80;;;15.37;;
25497;SDS011;13406;53.380;7.226;2023-04-09T14:04:16;19.17;;;14.33;;
25497;SDS011;13406;53.380;7.226;2023-04-09T14:06:41;20.17;;;16.00;;
25497;SDS011;13406;53.380;7.226;2023-04-09T14:09:08;16.33;;;14.10;;
25497;SDS011;13406;53.380;7.226;2023-04-09T14:11:35;18.90;;;15.37;;
25497;SDS011;13406;53.380;7.226;2023-04-09T14:14:00;16.93;;;13.50;;
25497;SDS011;13406;53.380;7.226;2023-04-09T14:16:26;15.50;;;13.30;;
25497;SDS011;13406;53.380;7.226;2023-04-09T14:18:52;16.53;;;13.70;;
25497;SDS011;13406;53.380;7.226;2023-04-09T14:21:17;18.60;;;14.63;;
25497;SDS011;13406;53.380;7.226;2023-04-09T14:23:43;15.43;;;13.67;;
25497;SDS011;13406;53.380;7.226;2023-04-09T14:26:08;16.57;;;13.60;;
25497;SDS011;13406;53.380;7.226;2023-04-09T14:28:34;15.17;;;13.17;;
25497;SDS011;13406;53.380;7.226;2023-04-09T14:31:00;15.47;;;13.07;;
25497;SDS011;13406;53.380;7.226;2023-04-09T14:33:26;14.93;;;11.63;;
25497;SDS011;13406;53.380;7.226;2023-04-09T14:35:51;12.83;;;11.10;;
25497;SDS011;13406;53.380;7.226;2023-04-09T14:38:17;11.00;;;9.37;;
25497;SDS011;13406;53.380;7.226;2023-04-09T14:40:43;13.80;;;11.03;;